Time;durP1;ratioP1;P1;durP2;ratioP2;P2;SDS_P1;SDS_P2;PMS_P1;PMS_P2;Temp;Humidity;BMP_temperature;BMP_pressure;BME280_temperature;BME280_humidity;BME280_pressure;Samples;Min_cycle;Max_cycle;Signal;HPM_P1;HPM_P2
2024/02/16 00:00:25;;;;;;;;;;;;;;;26.59;37.98;94117.59;5034615;28;9113;-43
2024/02/16 00:02:51;;;;;;;;;;;;;;;26.57;37.95;94113.84;5040208;28;7021;-57
2024/02/16 00:05:18;;;;;;;;;;;;;;;26.58;37.80;94120.84;5032026;28;7270;-57
2024/02/16 00:07:44;;;;;;;;;;;;;;;26.59;37.90;94122.34;5035421;28;7000;-57
2024/02/16 00:10:18;;;;;;;;;;;;;;;26.55;37.76;94111.63;5020713;28;7239;-57
2024/02/16 00:12:44;;;;;;;;;;;;;;;26.57;38.17;94109.09;5033257;28;8776;-41
2024/02/16 00:15:13;;;;;;;;;;;;;;;26.60;38.25;94110.06;5044383;28;8490;-40
2024/02/16 00:17:54;;;;;;;;;;;;;;;26.60;38.09;94112.81;5032807;28;8776;-39
2024/02/16 00:20:54;;;;;;;;;;;;;;;26.61;37.89;94122.56;5028028;28;9067;-39
2024/02/16 00:24:07;;;;;;;;;;;;;;;26.62;37.95;94121.31;5012392;28;9675;-45
2024/02/16 00:26:45;;;;;;;;;;;;;;;26.59;37.96;94119.59;4992642;28;6986;-44
2024/02/16 00:29:24;;;;;;;;;;;;;;;26.56;37.96;94118.63;4986224;28;9186;-44
2024/02/16 00:31:51;;;;;;;;;;;;;;;26.57;37.97;94125.66;5001537;28;9510;-43
2024/02/16 00:34:36;;;;;;;;;;;;;;;26.57;37.72;94124.88;4995226;28;7319;-45
2024/02/16 00:37:05;;;;;;;;;;;;;;;26.57;37.61;94127.66;5011603;28;7238;-44
2024/02/16 00:39:30;;;;;;;;;;;;;;;26.57;38.19;94131.16;5004515;28;7277;-44
2024/02/16 00:41:56;;;;;;;;;;;;;;;26.55;38.08;94121.91;4995306;28;9064;-44
2024/02/16 00:44:22;;;;;;;;;;;;;;;26.56;38.23;94124.13;5020174;28;7973;-44
2024/02/16 00:47:06;;;;;;;;;;;;;;;26.55;37.76;94117.16;4996132;28;7153;-43
2024/02/16 00:49:50;;;;;;;;;;;;;;;26.54;37.67;94121.16;4993385;28;7266;-43
2024/02/16 00:52:29;;;;;;;;;;;;;;;26.58;37.82;94131.88;4994964;28;7257;-43
2024/02/16 00:55:48;;;;;;;;;;;;;;;26.58;38.00;94126.38;4995316;28;8780;-44
2024/02/16 00:59:10;;;;;;;;;;;;;;;26.57;37.37;94125.66;4983571;28;7039;-43
2024/02/16 01:01:48;;;;;;;;;;;;;;;26.57;37.24;94125.66;5017077;28;8763;-45
2024/02/16 01:04:15;;;;;;;;;;;;;;;26.56;37.46;94117.88;4999680;28;7224;-44
2024/02/16 01:06:53;;;;;;;;;;;;;;;26.56;37.65;94124.13;4992077;28;9546;-43
2024/02/16 01:09:21;;;;;;;;;;;;;;;26.53;38.09;94122.44;4981579;28;8978;-47
2024/02/16 01:11:49;;;;;;;;;;;;;;;26.54;37.66;94123.16;4980720;28;8693;-46
2024/02/16 01:14:28;;;;;;;;;;;;;;;26.54;37.77;94120.41;5008256;28;9179;-44
2024/02/16 01:17:15;;;;;;;;;;;;;;;26.54;37.46;94123.16;5016751;28;6993;-45
2024/02/16 01:19:42;;;;;;;;;;;;;;;26.52;37.58;94129.22;4998982;28;8969;-44
2024/02/16 01:22:18;;;;;;;;;;;;;;;26.55;37.51;94132.94;4999077;28;8772;-44
2024/02/16 01:25:15;;;;;;;;;;;;;;;26.55;37.41;94141.22;4998996;28;7240;-45
2024/02/16 01:27:43;;;;;;;;;;;;;;;26.52;37.46;94139.50;4923998;28;9367;-44
2024/02/16 01:30:19;;;;;;;;;;;;;;;26.53;37.46;94130.72;4940117;28;8457;-44
2024/02/16 01:32:47;;;;;;;;;;;;;;;26.54;37.74;94142.47;4956787;28;7234;-39
2024/02/16 01:35:14;;;;;;;;;;;;;;;26.52;37.51;94140.25;4955952;28;7054;-39
2024/02/16 01:37:43;;;;;;;;;;;;;;;26.54;37.75;94136.97;4951228;28;7198;-39
2024/02/16 01:40:17;;;;;;;;;;;;;;;26.52;37.75;94133.97;4956339;28;9042;-39
2024/02/16 01:42:49;;;;;;;;;;;;;;;26.56;37.72;94128.91;4959894;28;6989;-39
2024/02/16 01:45:18;;;;;;;;;;;;;;;26.53;37.29;94132.72;4974046;28;9169;-41
2024/02/16 01:47:49;;;;;;;;;;;;;;;26.53;37.89;94136.22;4947363;28;7243;-39
2024/02/16 01:50:29;;;;;;;;;;;;;;;26.54;37.49;94136.97;4945278;28;9268;-39
2024/02/16 01:53:14;;;;;;;;;;;;;;;26.54;37.63;94139.72;4975777;28;7235;-39
2024/02/16 01:55:55;;;;;;;;;;;;;;;26.53;37.48;94139.00;4943999;28;9975;-39
2024/02/16 01:58:22;;;;;;;;;;;;;;;26.53;37.40;94141.75;4956419;28;7022;-40
2024/02/16 02:01:02;;;;;;;;;;;;;;;26.53;37.34;94141.75;4960214;28;7417;-39
2024/02/16 02:03:29;;;;;;;;;;;;;;;26.54;37.45;94140.47;4982978;28;8583;-39
2024/02/16 02:06:11;;;;;;;;;;;;;;;26.53;37.28;94138.25;5035252;28;7631;-39
2024/02/16 02:08:41;;;;;;;;;;;;;;;26.50;37.39;94131.75;5036801;28;9078;-39
2024/02/16 02:11:07;;;;;;;;;;;;;;;26.52;37.47;94134.72;5044010;28;7699;-39
2024/02/16 02:13:33;;;;;;;;;;;;;;;26.51;37.04;94135.25;5035427;28;7039;-39
2024/02/16 02:16:06;;;;;;;;;;;;;;;26.53;37.28;94138.25;5038125;28;7000;-39
2024/02/16 02:18:41;;;;;;;;;;;;;;;26.52;37.48;94131.97;5035314;28;7000;-39
2024/02/16 02:21:17;;;;;;;;;;;;;;;26.51;37.00;94140.78;5020888;28;7181;-40
2024/02/16 02:24:03;;;;;;;;;;;;;;;26.51;37.33;94133.22;5051745;28;8326;-39
2024/02/16 02:26:35;;;;;;;;;;;;;;;26.51;37.38;94133.22;5041922;28;9167;-39
2024/02/16 02:29:21;;;;;;;;;;;;;;;26.52;37.23;94131.22;5034110;28;7069;-39
2024/02/16 02:31:52;;;;;;;;;;;;;;;26.53;37.05;94130.72;5035954;28;7294;-39
2024/02/16 02:34:20;;;;;;;;;;;;;;;26.51;37.41;94127.72;5043761;28;8395;-39
2024/02/16 02:36:46;;;;;;;;;;;;;;;26.48;37.81;94122.50;5020564;28;9180;-39
2024/02/16 02:39:13;;;;;;;;;;;;;;;26.48;37.26;94125.25;5050048;28;9192;-39
2024/02/16 02:41:41;;;;;;;;;;;;;;;26.45;37.55;94123.53;5021068;28;7148;-39
2024/02/16 02:44:07;;;;;;;;;;;;;;;26.46;37.58;94125.78;5049195;28;8861;-44
2024/02/16 02:46:50;;;;;;;;;;;;;;;26.45;37.67;94124.28;5043022;28;9964;-44
2024/02/16 02:50:01;;;;;;;;;;;;;;;26.52;37.61;94125.72;5030992;28;7266;-43
2024/02/16 02:52:27;;;;;;;;;;;;;;;26.52;37.45;94112.66;5026053;28;9089;-43
2024/02/16 02:55:04;;;;;;;;;;;;;;;26.50;37.56;94123.47;5035796;28;7215;-43
2024/02/16 02:57:45;;;;;;;;;;;;;;;26.51;37.51;94133.22;5037835;28;7235;-45
2024/02/16 03:00:12;;;;;;;;;;;;;;;26.51;37.45;94127.00;5034313;28;7324;-44
2024/02/16 03:02:41;;;;;;;;;;;;;;;26.53;37.11;94135.47;5034371;28;7265;-44
2024/02/16 03:05:08;;;;;;;;;;;;;;;26.52;37.42;94128.47;5038132;28;7407;-43
2024/02/16 03:08:07;;;;;;;;;;;;;;;26.52;37.00;94128.47;5038811;28;7082;-46
2024/02/16 03:10:35;;;;;;;;;;;;;;;26.51;37.27;94127.00;4990949;28;6995;-45
2024/02/16 03:13:33;;;;;;;;;;;;;;;26.51;37.28;94133.22;4994008;28;9169;-45
2024/02/16 03:16:00;;;;;;;;;;;;;;;26.49;37.24;94133.00;4945758;28;7245;-43
2024/02/16 03:18:51;;;;;;;;;;;;;;;26.50;37.01;94136.53;4914894;29;6876;-44
2024/02/16 03:21:43;;;;;;;;;;;;;;;26.50;37.42;94142.03;4917639;29;7342;-43
2024/02/16 03:24:13;;;;;;;;;;;;;;;26.48;37.38;94133.53;4934255;29;9040;-45
2024/02/16 03:26:47;;;;;;;;;;;;;;;26.49;37.25;94135.78;4920398;29;7240;-44
2024/02/16 03:29:13;;;;;;;;;;;;;;;26.46;37.51;94125.78;4920935;29;7215;-44
2024/02/16 03:31:50;;;;;;;;;;;;;;;26.51;37.35;94135.25;4939116;28;9049;-44
2024/02/16 03:34:25;;;;;;;;;;;;;;;26.51;37.66;94135.25;4930556;29;7380;-43
2024/02/16 03:36:51;;;;;;;;;;;;;;;26.49;37.26;94130.25;4925421;28;7268;-44
2024/02/16 03:39:20;;;;;;;;;;;;;;;26.51;37.08;94135.25;4927456;29;6983;-44
2024/02/16 03:41:49;;;;;;;;;;;;;;;26.50;37.16;94142.03;4935776;29;7321;-43
2024/02/16 03:44:21;;;;;;;;;;;;;;;26.49;37.21;94140.56;4934746;29;8533;-43
2024/02/16 03:46:47;;;;;;;;;;;;;;;26.48;37.16;94139.81;4941243;28;9205;-45
2024/02/16 03:49:15;;;;;;;;;;;;;;;26.51;37.40;94149.06;4971657;28;7029;-43
2024/02/16 03:51:42;;;;;;;;;;;;;;;26.51;37.20;94146.28;4984391;28;7194;-44
2024/02/16 03:54:09;;;;;;;;;;;;;;;26.50;36.78;94155.81;5045004;28;7235;-44
2024/02/16 03:56:42;;;;;;;;;;;;;;;26.48;37.18;94155.59;5028231;28;9057;-43
2024/02/16 03:59:14;;;;;;;;;;;;;;;26.49;37.07;94170.91;5025119;28;9154;-44
2024/02/16 04:01:42;;;;;;;;;;;;;;;26.47;37.00;94159.66;5022346;28;9229;-44
2024/02/16 04:04:10;;;;;;;;;;;;;;;26.45;37.28;94160.16;5032863;28;7262;-45
2024/02/16 04:06:39;;;;;;;;;;;;;;;26.45;37.19;94162.16;5031451;28;8762;-44
2024/02/16 04:09:06;;;;;;;;;;;;;;;26.49;36.89;94168.13;5037928;28;7271;-44
2024/02/16 04:11:32;;;;;;;;;;;;;;;26.47;36.70;94165.88;5043985;28;7434;-44
2024/02/16 04:14:09;;;;;;;;;;;;;;;26.47;36.80;94171.41;5049470;28;6973;-45
2024/02/16 04:16:35;;;;;;;;;;;;;;;26.48;36.87;94175.66;5028105;28;7073;-44
2024/02/16 04:19:02;;;;;;;;;;;;;;;26.47;37.55;94173.44;5032242;28;9178;-45
2024/02/16 04:21:52;;;;;;;;;;;;;;;26.47;36.82;94179.66;5032944;28;8915;-43
2024/02/16 04:24:22;;;;;;;;;;;;;;;26.46;36.77;94180.97;5032088;28;6986;-45
2024/02/16 04:27:02;;;;;;;;;;;;;;;26.48;37.35;94178.41;5034067;28;7421;-43
2024/02/16 04:29:29;;;;;;;;;;;;;;;26.47;36.61;94178.94;5048075;28;7044;-43
2024/02/16 04:32:50;;;;;;;;;;;;;;;26.48;37.41;94178.41;5039596;28;7150;-44
2024/02/16 04:35:18;;;;;;;;;;;;;;;26.49;37.36;94184.69;5012161;28;9399;-44
2024/02/16 04:37:45;;;;;;;;;;;;;;;26.47;37.33;94178.94;5013738;28;7265;-44
2024/02/16 04:40:13;;;;;;;;;;;;;;;26.42;37.20;94171.47;4999425;28;9016;-43
2024/02/16 04:42:47;;;;;;;;;;;;;;;26.45;36.97;94179.44;5010836;28;7207;-44
2024/02/16 04:45:13;;;;;;;;;;;;;;;26.44;37.24;94177.97;4994917;28;7050;-43
2024/02/16 04:47:39;;;;;;;;;;;;;;;26.44;37.53;94174.47;5021054;28;9100;-43
2024/02/16 04:50:10;;;;;;;;;;;;;;;26.44;36.89;94172.47;5001578;28;7916;-43
2024/02/16 04:52:37;;;;;;;;;;;;;;;26.46;37.23;94182.97;5002280;28;6979;-45
2024/02/16 04:55:19;;;;;;;;;;;;;;;26.44;37.66;94177.22;5027236;28;7053;-45
2024/02/16 04:57:46;;;;;;;;;;;;;;;26.44;37.34;94175.22;4992432;28;8668;-44
2024/02/16 05:00:14;;;;;;;;;;;;;;;26.45;36.84;94178.69;5008432;28;7185;-44
2024/02/16 05:02:42;;;;;;;;;;;;;;;26.43;36.62;94175.72;4995004;28;8222;-44
2024/02/16 05:05:10;;;;;;;;;;;;;;;26.43;37.22;94170.19;5001837;28;6974;-44
2024/02/16 05:07:41;;;;;;;;;;;;;;;26.40;36.71;94179.53;4995618;28;7196;-44
2024/02/16 05:10:09;;;;;;;;;;;;;;;26.42;36.87;94179.75;5020758;28;8769;-43
2024/02/16 05:12:35;;;;;;;;;;;;;;;26.41;36.92;94189.28;5050526;28;7159;-43
2024/02/16 05:15:05;;;;;;;;;;;;;;;26.41;37.18;94187.28;5046932;28;7227;-43
2024/02/16 05:17:36;;;;;;;;;;;;;;;26.40;37.11;94182.28;5041376;28;9073;-44
2024/02/16 05:20:15;;;;;;;;;;;;;;;26.42;37.06;94186.03;5033255;28;8704;-44
2024/02/16 05:22:49;;;;;;;;;;;;;;;26.40;37.21;94185.06;5032359;28;6967;-43
2024/02/16 05:25:19;;;;;;;;;;;;;;;26.41;36.67;94183.78;5031309;28;9024;-46
2024/02/16 05:27:47;;;;;;;;;;;;;;;26.42;37.37;94185.28;5034677;28;7883;-44
2024/02/16 05:30:15;;;;;;;;;;;;;;;26.40;36.98;94188.56;5030588;28;7015;-44
2024/02/16 05:32:44;;;;;;;;;;;;;;;26.40;36.65;94183.03;5032202;28;8767;-43
2024/02/16 05:35:19;;;;;;;;;;;;;;;26.39;37.17;94189.81;5029703;28;7001;-44
2024/02/16 05:37:49;;;;;;;;;;;;;;;26.38;37.00;94184.81;5032809;28;9318;-43
2024/02/16 05:40:24;;;;;;;;;;;;;;;26.37;37.40;94183.31;5038230;28;7267;-45
2024/02/16 05:42:52;;;;;;;;;;;;;;;26.38;37.07;94180.03;5034820;28;8877;-45
2024/02/16 05:45:18;;;;;;;;;;;;;;;26.37;36.71;94183.31;5034491;28;9059;-43
2024/02/16 05:47:45;;;;;;;;;;;;;;;26.37;37.00;94183.31;5031443;28;7577;-44
2024/02/16 05:50:16;;;;;;;;;;;;;;;26.37;37.38;94180.56;5032695;28;7331;-44
2024/02/16 05:52:50;;;;;;;;;;;;;;;26.36;37.14;94177.06;5038100;28;7218;-44
2024/02/16 05:55:20;;;;;;;;;;;;;;;26.36;37.10;94182.56;5034679;28;7283;-44
2024/02/16 05:58:38;;;;;;;;;;;;;;;26.39;37.20;94183.53;5039099;28;8767;-44
2024/02/16 06:01:04;;;;;;;;;;;;;;;26.39;36.69;94184.31;4969028;28;7371;-45
2024/02/16 06:03:31;;;;;;;;;;;;;;;26.36;36.76;94182.56;4966682;28;9008;-40
2024/02/16 06:05:58;;;;;;;;;;;;;;;26.36;36.81;94190.13;4975618;28;7061;-41
2024/02/16 06:08:37;;;;;;;;;;;;;;;26.35;37.74;94191.38;4974850;28;7026;-40
2024/02/16 06:11:20;;;;;;;;;;;;;;;26.37;37.10;94194.34;4975007;28;7495;-41
2024/02/16 06:13:46;;;;;;;;;;;;;;;26.33;37.73;94191.16;4959497;28;7266;-41
2024/02/16 06:16:17;;;;;;;;;;;;;;;26.36;37.49;94195.63;4978233;28;8776;-40
2024/02/16 06:18:51;;;;;;;;;;;;;;;26.35;37.38;94191.38;4958065;28;7420;-41
2024/02/16 06:21:18;;;;;;;;;;;;;;;26.34;37.53;94201.66;4977443;28;7280;-40
2024/02/16 06:23:44;;;;;;;;;;;;;;;26.36;37.14;94209.41;4972393;28;9125;-41
2024/02/16 06:26:10;;;;;;;;;;;;;;;26.33;37.17;94202.19;4972615;28;7236;-41
2024/02/16 06:28:37;;;;;;;;;;;;;;;26.29;37.09;94205.25;4957791;28;8243;-41
2024/02/16 06:31:04;;;;;;;;;;;;;;;26.31;37.87;94215.75;4974548;28;9225;-41
2024/02/16 06:33:32;;;;;;;;;;;;;;;26.32;38.02;94225.53;4961952;28;9175;-41
2024/02/16 06:36:01;;;;;;;;;;;;;;;26.32;37.87;94231.03;4987532;28;7078;-41
2024/02/16 06:38:27;;;;;;;;;;;;;;;26.30;37.79;94230.78;5035590;28;7254;-41
2024/02/16 06:40:53;;;;;;;;;;;;;;;26.34;37.16;94234.00;5041497;28;7216;-41
2024/02/16 06:43:18;;;;;;;;;;;;;;;26.33;37.40;94229.75;5035283;28;8783;-41
2024/02/16 06:45:46;;;;;;;;;;;;;;;26.33;37.37;94233.25;5020204;28;8911;-41
2024/02/16 06:48:18;;;;;;;;;;;;;;;26.34;37.01;94239.53;5035584;28;6986;-41
2024/02/16 06:50:45;;;;;;;;;;;;;;;26.33;37.65;94236.03;5037235;28;8754;-41
2024/02/16 06:53:22;;;;;;;;;;;;;;;26.34;38.00;94236.78;5033797;28;7678;-41
2024/02/16 06:55:51;;;;;;;;;;;;;;;26.32;37.33;94234.50;5032908;28;8718;-41
2024/02/16 06:58:26;;;;;;;;;;;;;;;26.33;37.62;94232.50;5035674;28;7006;-41
2024/02/16 07:00:55;;;;;;;;;;;;;;;26.34;37.30;94242.28;5034199;28;7207;-40
2024/02/16 07:03:23;;;;;;;;;;;;;;;26.34;37.29;94236.78;5034986;28;7502;-41
2024/02/16 07:05:51;;;;;;;;;;;;;;;26.33;37.32;94235.28;5029580;28;7887;-40
2024/02/16 07:08:23;;;;;;;;;;;;;;;26.33;37.47;94238.78;5033544;28;9068;-40
2024/02/16 07:10:51;;;;;;;;;;;;;;;26.35;37.35;94238.25;5034191;28;7006;-40
2024/02/16 07:13:17;;;;;;;;;;;;;;;26.34;37.62;94228.50;5038787;28;7270;-41
2024/02/16 07:15:49;;;;;;;;;;;;;;;26.30;37.48;94241.81;5036732;28;7235;-41
2024/02/16 07:18:16;;;;;;;;;;;;;;;26.34;37.72;94239.53;5032227;28;7004;-42
2024/02/16 07:20:56;;;;;;;;;;;;;;;26.36;37.41;94239.75;5031068;28;6995;-40
2024/02/16 07:23:22;;;;;;;;;;;;;;;26.32;36.78;94236.56;5036159;28;8472;-41
2024/02/16 07:25:49;;;;;;;;;;;;;;;26.27;37.53;94240.09;5032396;28;7274;-41
2024/02/16 07:28:16;;;;;;;;;;;;;;;26.26;37.74;94244.13;5017096;28;7241;-42
2024/02/16 07:30:56;;;;;;;;;;;;;;;26.28;37.88;94244.34;5035246;28;8787;-41
2024/02/16 07:33:29;;;;;;;;;;;;;;;26.27;37.36;94243.63;5038594;28;7439;-42
2024/02/16 07:36:08;;;;;;;;;;;;;;;26.26;37.34;94244.88;5017116;28;9217;-41
2024/02/16 07:38:35;;;;;;;;;;;;;;;26.27;37.28;94251.88;5035411;28;7284;-41
2024/02/16 07:41:02;;;;;;;;;;;;;;;26.28;37.18;94247.84;5030914;28;7521;-42
2024/02/16 07:43:28;;;;;;;;;;;;;;;26.30;37.57;94256.34;5032994;28;7510;-41
2024/02/16 07:46:08;;;;;;;;;;;;;;;26.29;37.27;94257.63;5037200;28;8012;-41
2024/02/16 07:48:35;;;;;;;;;;;;;;;26.31;37.46;94265.38;5032355;28;7250;-41
2024/02/16 07:51:02;;;;;;;;;;;;;;;26.31;37.62;94263.38;5031666;28;7133;-42
2024/02/16 07:53:31;;;;;;;;;;;;;;;26.33;37.22;94268.34;5035420;28;9447;-41
2024/02/16 07:56:01;;;;;;;;;;;;;;;26.30;37.13;94256.34;5030958;28;7323;-42
2024/02/16 07:58:29;;;;;;;;;;;;;;;26.34;37.68;94270.59;5032930;28;7212;-41
2024/02/16 08:00:55;;;;;;;;;;;;;;;26.35;37.18;94265.81;5038882;28;7845;-42
2024/02/16 08:03:33;;;;;;;;;;;;;;;26.34;37.23;94273.34;5040376;28;7010;-41
2024/02/16 08:06:00;;;;;;;;;;;;;;;26.31;37.00;94274.41;5034312;28;7387;-42
2024/02/16 08:08:29;;;;;;;;;;;;;;;26.34;37.29;94272.63;5033606;28;7248;-42
2024/02/16 08:10:54;;;;;;;;;;;;;;;26.33;37.15;94282.16;5036592;28;7029;-42
2024/02/16 08:13:20;;;;;;;;;;;;;;;26.34;37.68;94272.63;5037654;28;7365;-42
2024/02/16 08:16:23;;;;;;;;;;;;;;;26.35;37.27;94279.63;5031393;28;9529;-41
2024/02/16 08:18:50;;;;;;;;;;;;;;;26.35;37.53;94276.84;5004046;28;9157;-42
2024/02/16 08:21:16;;;;;;;;;;;;;;;26.35;37.29;94274.09;4990047;28;7041;-41
2024/02/16 08:23:42;;;;;;;;;;;;;;;26.34;37.82;94284.38;4991873;28;9012;-41
2024/02/16 08:26:10;;;;;;;;;;;;;;;26.33;37.82;94280.13;4995041;28;9410;-40
2024/02/16 08:28:39;;;;;;;;;;;;;;;26.33;37.30;94279.38;4992936;28;9288;-40
2024/02/16 08:31:17;;;;;;;;;;;;;;;26.33;37.92;94282.91;5008776;28;7725;-41
2024/02/16 08:33:46;;;;;;;;;;;;;;;26.35;37.65;94285.88;5016114;28;9191;-41
2024/02/16 08:36:13;;;;;;;;;;;;;;;26.35;37.52;94293.41;4995434;28;9191;-41
2024/02/16 08:38:41;;;;;;;;;;;;;;;26.38;37.39;94300.66;5011964;28;6976;-41
2024/02/16 08:41:07;;;;;;;;;;;;;;;26.35;37.01;94290.66;5005540;28;9133;-41
2024/02/16 08:43:34;;;;;;;;;;;;;;;26.37;37.18;94310.16;5011528;28;9109;-40
2024/02/16 08:46:37;;;;;;;;;;;;;;;26.35;37.55;94299.66;4995652;28;7077;-40
2024/02/16 08:49:05;;;;;;;;;;;;;;;26.34;37.62;94303.69;4969528;28;8754;-40
2024/02/16 08:51:35;;;;;;;;;;;;;;;26.35;37.57;94312.69;4968648;28;7214;-42
2024/02/16 08:54:01;;;;;;;;;;;;;;;26.38;37.64;94311.69;4969012;28;8804;-40
2024/02/16 08:56:28;;;;;;;;;;;;;;;26.39;37.66;94321.44;4987298;28;7617;-41
2024/02/16 08:59:00;;;;;;;;;;;;;;;26.37;36.99;94319.19;4993157;28;7146;-41
2024/02/16 09:01:36;;;;;;;;;;;;;;;26.36;37.48;94309.41;4977182;28;9066;-41
2024/02/16 09:04:02;;;;;;;;;;;;;;;26.40;37.22;94318.19;4976580;28;7243;-41
2024/02/16 09:06:38;;;;;;;;;;;;;;;26.41;36.89;94322.41;4970168;28;7279;-41
2024/02/16 09:09:09;;;;;;;;;;;;;;;26.41;37.12;94327.94;4973127;28;7160;-41
2024/02/16 09:11:49;;;;;;;;;;;;;;;26.43;36.90;94324.63;4988940;28;6991;-41
2024/02/16 09:14:29;;;;;;;;;;;;;;;26.40;37.06;94328.44;4989804;28;7308;-42
2024/02/16 09:17:04;;;;;;;;;;;;;;;26.42;37.12;94331.44;4989456;28;7149;-41
2024/02/16 09:19:33;;;;;;;;;;;;;;;26.42;37.50;94325.91;4975342;28;7450;-41
2024/02/16 09:22:04;;;;;;;;;;;;;;;26.44;37.51;94332.41;4994535;28;7061;-42
2024/02/16 09:24:46;;;;;;;;;;;;;;;26.40;37.51;94331.22;5034287;28;8743;-41
2024/02/16 09:27:14;;;;;;;;;;;;;;;26.42;37.71;94332.19;5030511;28;7340;-41
2024/02/16 09:29:42;;;;;;;;;;;;;;;26.42;37.54;94336.94;5031383;28;8264;-41
2024/02/16 09:32:09;;;;;;;;;;;;;;;26.42;37.23;94334.19;5043456;28;7325;-49
2024/02/16 09:34:36;;;;;;;;;;;;;;;26.42;37.89;94342.47;5035403;28;7273;-38
2024/02/16 09:37:07;;;;;;;;;;;;;;;26.43;37.53;94339.19;5040681;28;9662;-38
2024/02/16 09:39:34;;;;;;;;;;;;;;;26.42;37.25;94336.94;5034968;28;8684;-38
2024/02/16 09:42:00;;;;;;;;;;;;;;;26.45;37.34;94341.41;5035592;28;7347;-38
2024/02/16 09:44:29;;;;;;;;;;;;;;;26.46;37.87;94340.16;5034869;28;8917;-38
2024/02/16 09:46:58;;;;;;;;;;;;;;;26.46;37.41;94340.91;5032700;28;6969;-38
2024/02/16 09:49:33;;;;;;;;;;;;;;;26.49;37.48;94341.91;5035330;28;7112;-38
2024/02/16 09:52:18;;;;;;;;;;;;;;;26.48;37.93;94338.38;5019632;28;7256;-37
2024/02/16 09:54:47;;;;;;;;;;;;;;;26.50;37.72;94346.13;5030923;28;7253;-38
2024/02/16 09:57:31;;;;;;;;;;;;;;;26.49;37.37;94345.38;5037592;28;7476;-39
2024/02/16 10:00:06;;;;;;;;;;;;;;;26.52;38.38;94352.63;5036769;28;6991;-38
2024/02/16 10:02:47;;;;;;;;;;;;;;;26.55;38.20;94353.63;5052066;28;6982;-38
2024/02/16 10:05:47;;;;;;;;;;;;;;;26.53;38.07;94356.91;5034904;28;6909;-38
2024/02/16 10:08:26;;;;;;;;;;;;;;;26.55;37.60;94359.13;5001366;28;7388;-38
2024/02/16 10:11:07;;;;;;;;;;;;;;;26.55;37.89;94359.13;5004606;28;7208;-52
2024/02/16 10:14:06;;;;;;;;;;;;;;;26.57;37.91;94356.59;4997415;28;7132;-52
2024/02/16 10:17:03;;;;;;;;;;;;;;;26.59;38.67;94365.84;4968543;28;7175;-54
2024/02/16 10:19:39;;;;;;;;;;;;;;;26.61;39.31;94363.31;4984185;28;9092;-53
2024/02/16 10:22:16;;;;;;;;;;;;;;;26.62;40.57;94364.81;5010048;28;8824;-50
2024/02/16 10:25:19;;;;;;;;;;;;;;;26.65;38.94;94365.78;4996917;28;7291;-48
2024/02/16 10:28:27;;;;;;;;;;;;;;;26.65;39.08;94376.81;4978732;28;7303;-54
2024/02/16 10:31:01;;;;;;;;;;;;;;;26.63;39.42;94371.81;4971875;28;7263;-51
2024/02/16 10:33:32;;;;;;;;;;;;;;;26.62;39.01;94375.84;4940030;28;7103;-48
2024/02/16 10:36:30;;;;;;;;;;;;;;;26.60;39.04;94380.41;4954091;28;7267;-47
2024/02/16 10:38:57;;;;;;;;;;;;;;;26.62;38.69;94381.34;4905768;29;7202;-49
2024/02/16 10:41:28;;;;;;;;;;;;;;;26.63;39.12;94382.84;4915971;29;7674;-51
2024/02/16 10:43:55;;;;;;;;;;;;;;;26.60;38.92;94385.91;4904242;29;7244;-37
2024/02/16 10:46:26;;;;;;;;;;;;;;;26.62;38.18;94386.16;4912527;29;7325;-38
2024/02/16 10:49:22;;;;;;;;;;;;;;;26.63;38.56;94393.91;4926072;29;7269;-38
2024/02/16 10:52:06;;;;;;;;;;;;;;;26.62;38.24;94388.91;4898818;29;8749;-39
2024/02/16 10:54:35;;;;;;;;;;;;;;;26.65;38.01;94394.13;4898573;29;7011;-38
2024/02/16 10:57:08;;;;;;;;;;;;;;;26.65;38.52;94388.59;4925475;29;8853;-38
2024/02/16 10:59:47;;;;;;;;;;;;;;;26.62;38.41;94392.38;4904819;29;9158;-39
2024/02/16 11:02:27;;;;;;;;;;;;;;;26.62;38.74;94402.69;4936942;28;8975;-38
2024/02/16 11:05:11;;;;;;;;;;;;;;;26.63;38.98;94398.66;4920818;29;7870;-38
2024/02/16 11:07:47;;;;;;;;;;;;;;;26.63;38.73;94395.91;4936283;28;7275;-38
2024/02/16 11:10:30;;;;;;;;;;;;;;;26.59;39.51;94387.94;4922557;28;8169;-38
2024/02/16 11:13:04;;;;;;;;;;;;;;;26.64;39.78;94394.66;4924448;29;7227;-39
2024/02/16 11:15:37;;;;;;;;;;;;;;;26.66;39.10;94392.88;4989720;28;7332;-38
2024/02/16 11:18:05;;;;;;;;;;;;;;;26.63;39.34;94387.63;5034273;28;9014;-39
2024/02/16 11:20:40;;;;;;;;;;;;;;;26.65;39.43;94393.38;5047625;28;6968;-38
2024/02/16 11:23:11;;;;;;;;;;;;;;;26.64;39.66;94389.13;5039662;28;9098;-38
2024/02/16 11:25:39;;;;;;;;;;;;;;;26.62;39.51;94386.88;5033615;28;7037;-38
2024/02/16 11:28:06;;;;;;;;;;;;;;;26.66;39.62;94392.13;5017789;28;7503;-38
2024/02/16 11:31:11;;;;;;;;;;;;;;;26.67;39.50;94399.13;5037264;28;7601;-38
2024/02/16 11:33:44;;;;;;;;;;;;;;;26.67;39.64;94393.59;5038768;28;7213;-38
2024/02/16 11:36:11;;;;;;;;;;;;;;;26.68;39.36;94387.59;5048574;28;7332;-38
2024/02/16 11:38:40;;;;;;;;;;;;;;;26.69;39.42;94391.06;5038270;28;9323;-38
2024/02/16 11:41:09;;;;;;;;;;;;;;;26.67;39.59;94390.84;5046093;28;7284;-38
2024/02/16 11:43:35;;;;;;;;;;;;;;;26.68;39.61;94392.34;5033166;28;7645;-38
2024/02/16 11:46:16;;;;;;;;;;;;;;;26.71;39.38;94389.28;5035313;28;7563;-38
2024/02/16 11:48:42;;;;;;;;;;;;;;;26.74;39.70;94393.06;5033548;28;7667;-38
2024/02/16 11:51:08;;;;;;;;;;;;;;;26.73;39.50;94392.31;5038036;28;6879;-38
2024/02/16 11:53:34;;;;;;;;;;;;;;;26.75;39.61;94400.09;5038868;28;9068;-53
2024/02/16 11:56:00;;;;;;;;;;;;;;;26.73;39.10;94399.84;5032574;28;7072;-51
2024/02/16 11:58:27;;;;;;;;;;;;;;;26.73;39.16;94394.34;5032103;28;8762;-53
2024/02/16 12:00:59;;;;;;;;;;;;;;;26.75;39.08;94400.81;5028631;28;7263;-53
2024/02/16 12:03:54;;;;;;;;;;;;;;;26.77;39.34;94405.81;5029050;28;7054;-53
2024/02/16 12:06:21;;;;;;;;;;;;;;;26.76;38.90;94405.06;5016545;28;9080;-51
2024/02/16 12:08:53;;;;;;;;;;;;;;;26.78;38.66;94401.78;5036770;28;7245;-52
2024/02/16 12:11:19;;;;;;;;;;;;;;;26.76;39.03;94401.56;5031746;28;7071;-52
2024/02/16 12:13:45;;;;;;;;;;;;;;;26.78;39.08;94407.31;5032186;28;8069;-53
2024/02/16 12:16:14;;;;;;;;;;;;;;;26.77;39.08;94411.34;5031132;28;8741;-50
2024/02/16 12:18:42;;;;;;;;;;;;;;;26.74;39.78;94404.09;5020763;28;9170;-47
2024/02/16 12:21:10;;;;;;;;;;;;;;;26.78;39.35;94404.53;5031729;28;7477;-47
2024/02/16 12:23:44;;;;;;;;;;;;;;;26.85;39.37;94406.72;5032221;28;9460;-48
2024/02/16 12:26:10;;;;;;;;;;;;;;;26.86;38.83;94405.47;5027630;28;9465;-46
2024/02/16 12:28:37;;;;;;;;;;;;;;;26.89;39.37;94407.94;5038196;28;8978;-53
2024/02/16 12:31:07;;;;;;;;;;;;;;;26.91;39.31;94407.41;5038423;28;9092;-49
2024/02/16 12:33:36;;;;;;;;;;;;;;;26.92;39.02;94403.41;5031487;28;7243;-53
2024/02/16 12:36:09;;;;;;;;;;;;;;;26.91;38.91;94399.13;5034276;28;6997;-50
2024/02/16 12:38:37;;;;;;;;;;;;;;;26.89;39.22;94399.66;5021831;28;7162;-50
2024/02/16 12:41:06;;;;;;;;;;;;;;;26.93;39.25;94399.34;5037018;28;7113;-51
2024/02/16 12:43:32;;;;;;;;;;;;;;;26.95;38.77;94399.59;5033229;28;7088;-49
2024/02/16 12:46:02;;;;;;;;;;;;;;;26.98;38.70;94395.03;5028557;28;6955;-51
2024/02/16 12:48:35;;;;;;;;;;;;;;;26.98;39.07;94395.78;5032936;28;9187;-51
2024/02/16 12:51:11;;;;;;;;;;;;;;;27.01;38.88;94394.75;5028249;28;7641;-49
2024/02/16 12:54:06;;;;;;;;;;;;;;;27.02;39.40;94393.47;5033953;28;9024;-50
2024/02/16 12:57:04;;;;;;;;;;;;;;;27.07;39.52;94392.69;5008586;28;7269;-49
2024/02/16 12:59:39;;;;;;;;;;;;;;;27.10;39.18;94396.41;4976027;28;9740;-47
2024/02/16 13:02:23;;;;;;;;;;;;;;;27.13;39.71;94406.41;4969652;28;7061;-40
2024/02/16 13:05:08;;;;;;;;;;;;;;;27.15;39.41;94399.09;4974204;28;7283;-50
2024/02/16 13:07:37;;;;;;;;;;;;;;;27.15;39.56;94392.81;4976447;28;7265;-49
2024/02/16 13:10:04;;;;;;;;;;;;;;;27.18;39.83;94398.06;4981982;28;9529;-48
2024/02/16 13:12:31;;;;;;;;;;;;;;;27.20;39.64;94394.78;4961520;28;7070;-50
2024/02/16 13:15:00;;;;;;;;;;;;;;;27.22;39.99;94400.53;4970640;28;8374;-49
2024/02/16 13:17:27;;;;;;;;;;;;;;;27.23;39.87;94388.94;4965403;28;8740;-47
2024/02/16 13:19:57;;;;;;;;;;;;;;;27.26;39.67;94393.44;4974094;28;7003;-48
2024/02/16 13:22:23;;;;;;;;;;;;;;;27.26;39.59;94392.69;4975736;28;8523;-48
2024/02/16 13:24:51;;;;;;;;;;;;;;;27.22;39.69;94395.75;4956139;28;7076;-46
2024/02/16 13:27:25;;;;;;;;;;;;;;;27.23;39.23;94399.25;4972239;28;6977;-50
2024/02/16 13:29:51;;;;;;;;;;;;;;;27.26;39.20;94398.22;4970405;28;7325;-47